グアダラハラ の空港の天気 - METARとTAF

ドン・ミゲル・イダルゴ・イ・コスティージャ国際空港 ( MMGL / GDL ) - メキシコ ハリスコ州グアダラハラ
飛行場実況気象(Metar)
観測時間05/28 05:57 CDT (05/28 10:57 UTC)
風向・風速静穏 0m/s
視程10km以上
天気現象
全天の4割程度の雲 雲底高度 9140m
気温17℃
湿度63%
気圧1020hPa
METARMMGL 281057Z RTD 00000KT 10SM SCT300 17/10 A3012 RMK 8/001
過去の天気等 Google飛行場航空写真 Wunderground天気予報

過去48時間のMETAR

飛行場予報(TAF)
発表時間: 5/28 05:28 CDT (5/28 10:28 UTC)
予報対象時間: 28日7時 CDT ~ 29日13時 CDT
風向・風速東北東 3m/s
視程10km以上
全天の4割程度の雲 雲底高度 610m
全天の4割程度の雲 雲底高度 7620m
28日11時 CDT から
風向・風速東北東 4m/s
視程10km以上
全天の4割程度の雲 雲底高度 7620m
28日17時 CDT から
風向・風速東 6m/s
視程10km以上
全天の4割程度の雲 雲底高度 610m
全天の4割程度の雲 雲底高度 7620m
28日22時 CDT から
風向・風速東 3m/s
視程10km以上
全天の4割程度の雲 雲底高度 610m
全天の4割程度の雲 雲底高度 7620m
29日11時 CDT から
風向・風速東北東 4m/s
視程10km以上
全天の4割程度の雲 雲底高度 7620m
TAF MMGL 281028Z 2812/2918 06005KT P6SM SCT020 SCT250 TX33/2821Z TN17/2812Z
FM281600 06008KT P6SM SCT250
FM282200 08012KT P6SM SCT020 SCT250
FM290300 08005KT P6SM SCT020 SCT250
FM291600 06008KT P6SM SCT250